Aktualne dane pomiarowe

Uwaga, wersja testowa! Automatyczne pobieranie danych za pomocą narzędzi lub skryptów to umożliwiających jest zabronione.

Dane meteo z obszaru Polski uzyskane na podstawie depesz SYNOP pobieranych co godzinę z NWS. Najedź myszką na symbol przedstawiony w tabeli, aby uzyskać informacje co do jego znaczenia. Prosimy pamiętać, że to testowa wersja strony, która jeszcze nie jest ukończona. Stworzono również jest krótki FAQ dotyczący korzystania z tej podstrony Anomalie temperatury w chwili obecnej odniesione są do okresu referencyjnego 1951-2016. Okres ten będzie później zmieniony na 1981-2010. Kliknij ikonę aby pobrać plik CSV. Kliknij ikonę aby wygenerować mapę synoptyczną dla danego terminu.

Wybierz Datę:    

        

Gorzów Wlkp (12300)

Dane terminowe dla wybranej stacji. Kliknij datę, aby otrzymać dane z tego terminu dla wszystkich stacji.

TemperaturaZachmurzenieWiatrCiśnienieOpadyPogoda
 Data t td wb tx tn tg rh  Nt Nl Cl Cm Ch ws wd g1 g2 wx mslp ppp ch 24h 12h t ww ww w1 w2  
2019-05-20 23:00:00 14.5 10.9 12.1--- 7950.0wx-wx1wx--11003.4 994.6 0.2---------
2019-05-20 22:00:00 15.0 11.2 12.5--- 7850.0wx-wx0---01003.2 994.4 0.2---------
2019-05-20 21:00:00 16.1 11.5 13.1--- 7450.0wx-wx2wx--21003.2 994.5 0.9---------
2019-05-20 20:00:00 16.8 11.7 13.5--- 7250.0wx-wx2wx--21003.1 994.4 1.3---------
2019-05-20 19:00:00 17.9 11.9 14.1--- 6850.0wx-wxwx2wx---1002.9 994.2 1.1---------
2019-05-20 18:00:00 19.6 13.3 15.5 23.7 17.0- 6740.0wxwxwxwx2wx-1121002.2 993.6 0.4- 8.012wx-w1w2--
2019-05-20 17:00:00 21.0 14.4 16.7--- 6618.0wxwxwxwx3wx--31001.7 993.1 0.6---------
2019-05-20 16:00:00 21.2 14.6 16.9--- 6618.0wxwxwxwx3wx--31001.7 993.1 0.3---------
2019-05-20 15:00:00 20.8 18.0 18.8--- 8420.0wxwxwx2wx-1121001.8 993.2 -0.2---wx-w1w2--
2019-05-20 14:00:00 17.5 16.0 16.4--- 9115.0wxwxwx3wx-1131001.2 992.5 -1.4---wx-w1w2--
2019-05-20 13:00:00 22.4 18.0 19.3--- 7615.0wxwxwx2wx--21001.3 992.8 -1.4---wx-w1w2--
2019-05-20 12:00:00 23.5 16.3 18.7--- 6430.0wxwxwx3wx--31001.9 993.4 -1.3- 0.06------
2019-05-20 11:00:00 22.9 15.7 18.2--- 6420.0wxwxwxwx2wx--21002.4 993.9 -1.1---------
2019-05-20 10:00:00 22.3 14.7 17.4--- 6225.0wxwxwx3wx--31002.7 994.2 -1.0---------
2019-05-20 09:00:00 21.9 14.3 17.0--- 6225.0wxwxwxwxwx4wx--41003.3 994.7 -0.5---------
2019-05-20 08:00:00 20.6 13.5 16.0--- 6420.0wx-wxwx3wx--31003.6 995.0 -0.4---------
2019-05-20 07:00:00 19.0 13.6 15.5--- 7120.0wx-wx3wx--31003.8 995.2 -0.3---------
2019-05-20 06:00:00 17.2 13.1 14.5 20.0 13.9 12 7715.0wx-wx2wx--21003.9 995.2 -0.4 2.0-12----- 9.3
2019-05-20 05:00:00 15.5 12.6 13.5--- 8315.0wx-wx3wx--31004.1 995.4 -0.7---------
2019-05-20 04:00:00 14.5 12.4 13.0--- 8715.0wx-wxwx3wx--31004.3 995.5 -0.7---------
2019-05-20 03:00:00 14.0 11.7 12.4--- 8615.0wx-wxwx2wx--21004.4 995.6 -0.8---------
2019-05-20 02:00:00 14.5 11.8 12.7--- 8415.0wx-wxwx2wx--21004.9 996.1 -0.1---------
2019-05-20 01:00:00 15.1 12.4 13.3--- 8415.0wx-wxwx3wx--31005.0 996.2 -0.3---------
2019-05-20 00:00:00 15.3 13.5 14.0--- 8920.0wx-wx2wx--21005.2 996.4 -0.3--6wx-w1w2--
2019-05-19 23:00:00 15.4 13.2 13.9--- 8725.0wx-wx1wx--11005.0 996.2 -0.5---------
2019-05-19 22:00:00 17.1 13.6 14.7--- 8025.0wx-3wx--31005.2 996.5 0.1---------
2019-05-19 21:00:00 17.7 13.0 14.6--- 7430.0wx-2wx--21005.4 996.7 0.2---wx-w1w2--
2019-05-19 20:00:00 17.9 13.8 15.2--- 7730.0wxwxwxwxwx2wx--21005.4 996.7 0.6---wx---
2019-05-19 19:00:00 19.1 14.6 16.1--- 7530.0wxwxwxwxwx2wx--21005.0 996.4 0.4---wx-w1--
2019-05-19 18:00:00 20.0 14.8 16.5 24.9 15.7- 7230.0wxwxwxwx2wx---1005.1 996.5 0.3---wx-w1--
2019-05-19 17:00:00 22.5 14.1 17.1--- 5920.0wxwxwx4wx9941004.6 996.1 -0.6---------
2019-05-19 16:00:00 24.6 12.9 17.4--- 4830.0wxwxwxwx3wx--31004.5 996.0 -1.1---------
2019-05-19 15:00:00 24.6 13.8 17.8--- 5135.0wxwxwxwx3wx--31004.7 996.2 -1.1---------
2019-05-19 14:00:00 24.2 13.1 17.3--- 5030.0wxwxwxwx2wx--21005.2 996.7 -1.5---------
2019-05-19 13:00:00 24.3 10.2 16.0--- 4130.0wxwxwx2wx--21005.6 997.1 -1.0---------
2019-05-19 12:00:00 22.7 15.0 17.7--- 6220.0wxwxwx3wx-1631005.9 997.3 -1.3- 2.06wx-w1w2--
2019-05-19 11:00:00 17.1 14.0 15.0--- 8218.0wxwxwx3wx-1631006.9 998.2 -0.6---wx-w1w2--
2019-05-19 10:00:00 21.1 14.7 16.9--- 6712.0wxwxwx3wx--31006.7 998.1 -0.8---wx---
2019-05-19 09:00:00 19.4 14.9 16.4--- 7512.0wxwxwxwx1wx--11007.3 998.6 -0.5---------
2019-05-19 08:00:00 18.2 14.7 15.8--- 8010.0wxwxwxwx1wx--11007.5 998.8 -0.3---------
2019-05-19 07:00:00 18.5 15.0 16.1--- 8010.0wxwxwxwxwx2wx--21007.6 998.9 -0.1---------
2019-05-19 06:00:00 17.1 13.8 14.9 20.4 11.3 8 8110.0wx-wxwx2wx--21007.8 999.1 0.0- 0.012----- 12.9
2019-05-19 05:00:00 15.6 12.3 13.4--- 8112.0wx-wxwx2wx--21007.9 999.1 -0.1---------
2019-05-19 04:00:00 12.5 10.4 11.1--- 8712.0wx-wxwx2wx--21007.9 999.0 -0.2---------
2019-05-19 03:00:00 11.5 9.4 10.1--- 8712.0wx-wxwx1wx--11008.0 999.1 -0.2---------
2019-05-19 02:00:00 12.1 9.7 10.5--- 8515.0wx-wx1wx--11008.1 999.2 -0.2---------
2019-05-19 01:00:00 12.1 9.3 10.3--- 8320.0wx-2wx--21008.1 999.2 -0.3---------
2019-05-19 00:00:00 13.7 9.1 10.8--- 7425.0wx-1wx--11008.1 999.3 -0.1- 0.06------
3.6 ms

 

Print Friendly, PDF & Email